Terminal Aerodrome Forecast
Issued by NWS

Home | Current Version | Previous Version | Text Only | Print | Product List | Glossary On
Versions: 1 2 3 4 5 6 7 8 9 10 11 12 13 14
000
FTUS42 KMLB 240603 AAA
TAFSUA
TAF AMD
KSUA 240603Z 2406/2506 VRB03KT P6SM SKC
     FM241800 09008KT P6SM TS SCT040CB
     FM242000 10012KT P6SM VCSH SCT050
     FM250000 15004KT P6SM SCT250=

USA.gov is the U.S. government's official web portal to all federal, state and local government web resources and services.